MUC | München Airways

 METAR UND TAF INFORMATION

METAR FOR EGCN
ADDS - METARS form results

(1613 UTC 24 March 2019)
Data provider http://aviationweather.gov/metar/data/
 
METAR text: EGCN 241550Z 27020KT 9999 BKN040 10/02 Q1027
Conditions at: EGCN (DONCASTER SHEFFI, GB) observed 1550 UTC 24 March 2019
Temperature: 10.0°C (50°F)
Dewpoint: 2.0°C (36°F) [RH = 57%]
Pressure (altimeter): 30.32 inches Hg (1027.0 mb)
Winds: from the W (270 degrees) at 23 MPH (20 knots; 10.3 m/s)
Visibility: 6 or more miles (10+ km)
Ceiling: 4000 feet AGL
Clouds: broken clouds at 4000 feet AGL
Weather: no significant weather observed at this time

METAR text: EGCN 241520Z 27020G30KT 9999 BKN042 11/01 Q1028
Conditions at: EGCN (DONCASTER SHEFFI, GB) observed 1520 UTC 24 March 2019
Temperature: 11.0°C (52°F)
Dewpoint: 1.0°C (34°F) [RH = 50%]
Pressure (altimeter): 30.35 inches Hg (1028.0 mb)
Winds: from the W (270 degrees) at 23 MPH (20 knots; 10.3 m/s)
gusting to 34 MPH (30 knots; 15.4 m/s)
Visibility: 6 or more miles (10+ km)
Ceiling: 4200 feet AGL
Clouds: broken clouds at 4200 feet AGL
Weather: no significant weather observed at this time

Forecast for: EGCN (DONCASTER SHEFFI, GB)
Text: TAF EGCN 241055Z 2412/2512 28015KT 9999 SCT035
Forecast period: 1200 UTC 24 March 2019 to 1200 UTC 25 March 2019
Forecast type: FROM: standard forecast or significant change
Winds: from the W (280 degrees) at 17 MPH (15 knots; 7.7 m/s)
Visibility: 6 or more miles 10+ km)
Ceiling: at least 12,000 feet AGL
Clouds: scattered clouds at 3500 feet AGL
Weather: no significant weather forecast for this period
Text: PROB40
Forecast period: 1200 UTC 24 March 2019 to 0000 UTC 25 March 2019
Forecast type: TEMPORARY: The following changes expected for less than half the time period
Winds: from the W (280 degrees) at 21 MPH (18 knots; 9.3 m/s)
gusting to 32 MPH (28 knots; 14.4 m/s)
Visibility: missing
Ceiling: unknown
Clouds: missing
Weather: no significant weather forecast for this period
Text: TEMPO 2412/2424 28018G28KT
Forecast period: 1700 to 2100 UTC 24 March 2019
Forecast type: TEMPORARY: The following changes expected for less than half the time period
Visibility: 4 miles (6 km)
Ceiling: unknown
Clouds: missing
Weather: SHRA  (rain showers)

 FLUGHAFENKARTE

 RUNWAY INFORMATION
Runway 02 Runway length 9491 ft Runway width 197 ft
Runway elevation 52 ft Runway displaced threshold 714 ft Runway heading 18
Runway 20 Runway length 9491 ft Runway width 197 ft
Runway elevation 26 ft Runway displaced threshold 281 ft Runway heading 198

 AIRPORT FREQUENCIES
Type APP Name APP Frequency 126.225 MHZ
Type ATIS Name ATIS Frequency 134.95 MHZ
Type EMR Name FIRE Frequency 121.6 MHZ
Type RDR Name RDR Frequency 126.225 MHZ
Type TWR Name TWR Frequency 128.775 MHZ
Type ILS Name Frequency 110.95 MHZ

 AIRPORT NEAR NAVIGATION AIDS
Type NDB Name Doncaster Frequency 338 KHZ